*** The Vicarage Weather Feed ***

Nearby METAR Reports


 

CYOO - Oshawa, Municipal Airport, Ontario, Canada
Distance from station: NV 3.2km
Ultima actualizare: 19/11/2019 09:00
Acoperit cu nori
Acoperit cu nori
 Vânt dela calm
Vântul: Calm
Temperatura: 1°C
Punct de rouă: 0°C
Umiditate: 93%
Barometru: 1009.5 hPa
Clouds: Acoperit cu nori
Visibility: 14 km
Cloud details: Acoperit cu nori 610 m
2019/11/19 14:00 CYOO 191400Z AUTO 00000KT 9SM OVC020 01/00 A2981 RMK SLP102
CYKZ - Toronto, Buttonville, Municipal Airport, Ontario, Canada
Distance from station: V 39.75km
Ultima actualizare: 03/01/2019 04:00
NOT Current
Parțial înorat
Parțial înorat
 Vânt dela VSV
Vântul: VSV 7 km/h
Temperatura: -3°C
Wind Chill: -6°C
Punct de rouă: -5°C
Umiditate: 86%
Barometru: 1010.8 hPa
Clouds: Parțial înorat
Visibility: 24 km
Cloud details: Parțial înorat 1219 m
2019/01/03 09:00 CYKZ 030900Z 25004KT 15SM SCT040 M03/M05 A2985 RMK SC3 LAST STFD OBS FAREWELL SLP118
 
CXTO - Toronto City, Buttonville, Ontario, Canada
Distance from station: VSV 49km
Ultima actualizare: 19/11/2019 10:00

 
Temperatura: 3°C
Punct de rouă: 0°C
Umiditate: 81%
2019/11/19 15:00 CXTO 191500Z AUTO 03/M00 RMK AO1 SLP107 T00261002 51011
CYTZ - Toronto City, Island Airport, Ontario, Canada
Distance from station: SV 51.7km
Ultima actualizare: 19/11/2019 10:00
Acoperit cu nori
Acoperit cu nori
 Vânt dela E
Vântul: E 7 km/h
Temperatura: 2°C
Wind Chill: 0°C
Punct de rouă: 0°C
Umiditate: 87%
Barometru: 1010.2 hPa
Clouds: Acoperit cu nori
Visibility: 14 km
Cloud details: Acoperit cu nori 579 m
2019/11/19 15:00 CYTZ 191500Z AUTO 10004KT 9SM OVC019 02/00 A2983 RMK SLP107
 
CYPQ - Toronto, Peterborough Airport, Ontario, Canada
Distance from station: NE 54km
Ultima actualizare: 19/11/2019 10:03
Acoperit cu nori
Acoperit cu nori
 Vânt dela ENE
Vântul: ENE 4 km/h
Temperatura: 1°C
Punct de rouă: -2°C
Umiditate: 81%
Barometru: 1009.5 hPa
Clouds: Acoperit cu nori
Visibility: 14 km
Cloud details: Acoperit cu nori 701 m
2019/11/19 15:03 CYPQ 191503Z AUTO 06002KT 9SM OVC023 01/M02 A2981 RMK SLP103
CWNC - Cobourg, (mars), Ontario, Canada
Distance from station: E 57km
Ultima actualizare: 19/11/2019 10:00

 Vânt dela ESE
Vântul: ESE 2 km/h
Temperatura: 2°C
Punct de rouă: -4°C
Umiditate: 65%
2019/11/19 15:00 CWNC 191500Z AUTO 11001KT 02/M04 RMK AO1 SLP103 T00201041 51008
 
CYYZ - Toronto, Lester Pearson Airport, Ontario, Canada
Distance from station: V 65.5km
Ultima actualizare: 19/11/2019 10:00
Mist, Acoperit cu nori
Mist, Acoperit cu nori
 Vânt dela varies
Vântul: varies 4 km/h
Temperatura: 2°C
Punct de rouă: 1°C
Umiditate: 93%
Barometru: 1009.8 hPa
Sumar: Mist
Clouds: Acoperit cu nori
Visibility: 10 km
Cloud details: Parțial înorat 274 m
Acoperit cu nori 457 m
2019/11/19 15:00 CYYZ 191500Z VRB02KT 6SM BR SCT009 OVC015 02/01 A2982 RMK SF3SC5 SLP105
CWGL - Lagoon City, Ontario, Canada
Distance from station: NNV 74km
Ultima actualizare: 19/11/2019 10:00

 Vânt dela E
Vântul: E 6 km/h
Temperatura: 0°C
Punct de rouă: -2°C
Umiditate: 87%
2019/11/19 15:00 CWGL 191500Z AUTO 10003KT M00/M02 RMK AO1 SLP085 T10011018 51009
 
CWWZ - Port Weller Airport, Ontario, Canada
Distance from station: SSV 77km
Ultima actualizare: 19/11/2019 10:00

 Vânt dela ESE
Vântul: ESE 4 km/h
Temperatura: 4°C
Punct de rouă: 1°C
Umiditate: 81%
2019/11/19 15:00 CWWZ 191500Z AUTO 12002KT 04/01 RMK AO1 SLP103 T00400006 51013
CYSN - St.Catharines Niagara Airport, Ontario, Canada
Distance from station: SSV 81km
Ultima actualizare: 19/11/2019 10:00
Acoperit cu nori
Acoperit cu nori
 Vânt dela ENE
Vântul: ENE 6 km/h
Temperatura: 3°C
Punct de rouă: 1°C
Umiditate: 87%
Barometru: 1009.5 hPa
Clouds: Acoperit cu nori
Visibility: 24 km
Cloud details: In mare parte înorat 1006 m
Acoperit cu nori 1524 m
2019/11/19 15:00 CYSN 191500Z 06003KT 15SM BKN033 OVC050 03/01 A2981 RMK SC5SC3 SLP101
This data is offered only as a general guide to local weather conditions. It should not be relied upon in lieu of officially disseminated weather information for determining possible risk to persons or property. This site, including all information contained therein, is made available as is without warranties of any kind, either express or implied. The Vicarage Weather Feed© includes links to other sites for user convenience only. The content of any linked third-party site is not controlled by The Vicarage Weather Feed©. Access to any third-party website through The Vicarage Weather Feed©, regardless of whether or not the third-party site is a linked site, is entirely at the users own risk. Externally sourced content or material is excluded from The Vicarage Weather Feed© copyright and is the copyright and property of the respective provider. Skywarn® and the Skywarn® logo are registered trademarks of the National Oceanic and Atmospheric Administration, used with permission.